Time;durP1;ratioP1;P1;durP2;ratioP2;P2;SDS_P1;SDS_P2;PMS_P1;PMS_P2;Temp;Humidity;BMP_temperature;BMP_pressure;BME280_temperature;BME280_humidity;BME280_pressure;Samples;Min_cycle;Max_cycle;Signal;HPM_P1;HPM_P2
2022/03/29 00:00:17;;;;;;;20.13;5.95;;;12.30;99.90;;;;;;6188623;23;20005;-91
2022/03/29 00:02:47;;;;;;;16.30;6.80;;;12.20;99.90;;;;;;6187542;23;20092;-91
2022/03/29 00:05:14;;;;;;;9.10;5.57;;;12.30;99.90;;;;;;6182627;23;20013;-91
2022/03/29 00:07:41;;;;;;;21.77;6.40;;;12.30;99.90;;;;;;6158148;23;20092;-90
2022/03/29 00:10:09;;;;;;;16.02;5.93;;;12.30;99.90;;;;;;6183558;23;20009;-91
2022/03/29 00:12:37;;;;;;;9.77;4.80;;;12.30;99.90;;;;;;6182765;23;20325;-91
2022/03/29 00:15:06;;;;;;;12.70;5.00;;;12.30;99.90;;;;;;6185278;23;20001;-92
2022/03/29 00:17:33;;;;;;;15.40;6.15;;;12.30;99.90;;;;;;6206410;23;20022;-90
2022/03/29 00:20:00;;;;;;;19.67;6.03;;;12.20;99.90;;;;;;6183475;23;20072;-91
2022/03/29 00:22:27;;;;;;;18.58;6.10;;;12.20;99.90;;;;;;6182153;23;20021;-92
2022/03/29 00:24:54;;;;;;;15.38;5.97;;;12.30;99.90;;;;;;6182101;23;20084;-92
2022/03/29 00:27:20;;;;;;;10.75;5.68;;;12.20;99.90;;;;;;6182097;23;20515;-91
2022/03/29 00:29:48;;;;;;;13.88;5.65;;;12.20;99.90;;;;;;6182097;23;20001;-91
2022/03/29 00:32:15;;;;;;;18.15;5.63;;;12.20;99.90;;;;;;6182158;23;20014;-92
2022/03/29 00:34:42;;;;;;;16.30;6.45;;;12.20;99.90;;;;;;6181997;23;20002;-90
2022/03/29 00:37:09;;;;;;;12.77;6.45;;;12.20;99.90;;;;;;6157293;23;20157;-91
2022/03/29 00:39:36;;;;;;;13.32;6.60;;;12.20;99.90;;;;;;6125922;23;20001;-90
2022/03/29 00:42:04;;;;;;;18.17;6.68;;;12.20;99.90;;;;;;6182046;23;20013;-92
2022/03/29 00:44:34;;;;;;;19.80;7.00;;;12.10;99.90;;;;;;6181964;23;20002;-92
2022/03/29 00:47:02;;;;;;;26.20;5.68;;;12.20;99.90;;;;;;6182200;23;20010;-90
2022/03/29 00:49:29;;;;;;;17.88;6.28;;;12.20;99.90;;;;;;6181900;23;20002;-91
2022/03/29 00:51:59;;;;;;;12.90;6.35;;;12.20;99.90;;;;;;6181892;23;20017;-91
2022/03/29 00:54:29;;;;;;;16.50;6.78;;;12.20;99.90;;;;;;6181905;23;20005;-91
2022/03/29 00:57:00;;;;;;;14.88;6.35;;;12.10;99.90;;;;;;6181534;23;20021;-91
2022/03/29 00:59:28;;;;;;;14.70;6.75;;;12.20;99.90;;;;;;6181749;23;20017;-92
2022/03/29 01:02:00;;;;;;;23.77;7.30;;;12.10;99.90;;;;;;6181933;23;20012;-90
2022/03/29 01:04:28;;;;;;;13.57;6.97;;;12.10;99.90;;;;;;6181573;23;20032;-92
2022/03/29 01:06:59;;;;;;;16.67;7.60;;;12.10;99.90;;;;;;6181316;23;20025;-91
2022/03/29 01:09:29;;;;;;;14.43;6.30;;;12.00;99.90;;;;;;6181900;23;20071;-91
2022/03/29 01:11:57;;;;;;;13.07;6.22;;;12.00;99.90;;;;;;6181825;23;20313;-91
2022/03/29 01:14:27;;;;;;;14.30;7.60;;;12.00;99.90;;;;;;6181692;23;20033;-91
2022/03/29 01:19:41;;;;;;;19.38;6.97;;;11.90;99.90;;;;;;6156934;23;20020;-91
2022/03/29 01:22:10;;;;;;;18.65;7.32;;;11.90;99.90;;;;;;6181692;23;20009;-91
2022/03/29 01:24:43;;;;;;;12.27;6.57;;;11.90;99.90;;;;;;6182050;23;20009;-92
2022/03/29 01:27:12;;;;;;;23.00;7.20;;;11.90;99.90;;;;;;6181612;23;20015;-91
2022/03/29 01:29:40;;;;;;;15.73;6.68;;;11.90;99.90;;;;;;6181636;23;20009;-91
2022/03/29 01:32:11;;;;;;;15.77;7.45;;;11.80;99.90;;;;;;6181516;23;20029;-91
2022/03/29 01:34:42;;;;;;;15.82;6.28;;;11.90;99.90;;;;;;6181477;23;20013;-91
2022/03/29 01:37:12;;;;;;;16.05;6.43;;;11.90;99.90;;;;;;6181775;23;20060;-93
2022/03/29 01:39:39;;;;;;;21.20;7.82;;;11.80;99.90;;;;;;6181431;23;20017;-92
2022/03/29 01:42:08;;;;;;;19.40;7.38;;;11.80;99.90;;;;;;6182423;23;20060;-91
2022/03/29 01:44:35;;;;;;;22.77;6.80;;;11.80;99.90;;;;;;6182023;23;20332;-91
2022/03/29 01:47:02;;;;;;;16.40;7.70;;;11.80;99.90;;;;;;6181409;23;20093;-91
2022/03/29 01:49:31;;;;;;;18.52;6.95;;;11.80;99.90;;;;;;6181480;23;20092;-91
2022/03/29 01:51:59;;;;;;;14.25;5.95;;;11.80;99.90;;;;;;6181680;23;20001;-92
2022/03/29 01:54:26;;;;;;;16.23;7.30;;;11.70;99.90;;;;;;6181600;23;20501;-91
2022/03/29 01:56:53;;;;;;;17.95;7.05;;;11.70;99.90;;;;;;6181692;23;20467;-91
2022/03/29 01:59:20;;;;;;;17.70;7.78;;;11.70;99.90;;;;;;6132179;23;20010;-91
2022/03/29 02:01:49;;;;;;;21.63;8.45;;;11.70;99.90;;;;;;6182169;23;20088;-91
2022/03/29 02:04:17;;;;;;;17.75;6.93;;;11.70;99.90;;;;;;6156825;23;20009;-91
2022/03/29 02:06:44;;;;;;;20.85;7.18;;;11.70;99.90;;;;;;6133085;23;20085;-92
2022/03/29 02:09:10;;;;;;;17.77;7.05;;;11.70;99.90;;;;;;6133232;23;20020;-91
2022/03/29 02:11:41;;;;;;;17.65;7.47;;;11.80;99.90;;;;;;6180900;23;19985;-91
2022/03/29 02:14:08;;;;;;;19.27;7.70;;;11.70;99.90;;;;;;6133067;23;20020;-92
2022/03/29 02:16:35;;;;;;;23.05;7.88;;;11.70;99.90;;;;;;6156158;23;20010;-92
2022/03/29 02:19:02;;;;;;;18.52;7.70;;;11.70;99.90;;;;;;6131743;23;20037;-91
2022/03/29 02:21:35;;;;;;;24.88;8.82;;;11.70;99.90;;;;;;6156138;23;20009;-90
2022/03/29 02:24:02;;;;;;;29.25;9.82;;;11.60;99.90;;;;;;6131663;23;20013;-92
2022/03/29 02:26:28;;;;;;;18.42;8.60;;;11.70;99.90;;;;;;6156101;23;20012;-92
2022/03/29 02:28:56;;;;;;;19.17;8.32;;;11.70;99.90;;;;;;6131557;23;20009;-91
2022/03/29 02:31:22;;;;;;;19.67;9.02;;;11.60;99.90;;;;;;6096762;23;20007;-92
2022/03/29 02:33:50;;;;;;;20.77;8.18;;;11.60;99.90;;;;;;6096542;23;20086;-90
2022/03/29 02:36:17;;;;;;;22.00;9.02;;;11.70;99.90;;;;;;6096230;23;20010;-90
2022/03/29 02:38:44;;;;;;;16.08;6.93;;;11.70;99.90;;;;;;6096363;23;20183;-93
2022/03/29 02:41:10;;;;;;;18.05;7.18;;;11.70;99.90;;;;;;6096507;23;20006;-91
2022/03/29 02:43:37;;;;;;;19.23;8.15;;;11.70;99.90;;;;;;6096291;23;20456;-91
2022/03/29 02:46:04;;;;;;;22.50;9.07;;;11.70;99.90;;;;;;6096254;23;20429;-91
2022/03/29 02:48:31;;;;;;;20.70;8.45;;;11.70;99.90;;;;;;6096390;23;20017;-91
2022/03/29 02:50:58;;;;;;;23.38;8.20;;;11.70;99.90;;;;;;6096429;23;20014;-91
2022/03/29 02:53:25;;;;;;;20.23;9.00;;;11.60;99.90;;;;;;6096444;23;20503;-91
2022/03/29 02:55:52;;;;;;;20.10;8.57;;;11.60;99.90;;;;;;6095963;23;20018;-91
2022/03/29 02:58:22;;;;;;;28.77;10.10;;;11.60;99.90;;;;;;6096070;23;20014;-92
2022/03/29 03:00:49;;;;;;;19.55;8.25;;;11.60;99.90;;;;;;6096415;23;20014;-92
2022/03/29 03:03:15;;;;;;;16.77;8.23;;;11.60;99.90;;;;;;6127938;23;20013;-92
2022/03/29 03:05:42;;;;;;;21.67;8.07;;;11.60;99.90;;;;;;6136050;23;20021;-91
2022/03/29 03:08:09;;;;;;;20.60;7.85;;;11.60;99.90;;;;;;6160625;23;20045;-92
2022/03/29 03:10:36;;;;;;;19.08;8.18;;;11.60;99.90;;;;;;6160878;23;20063;-91
2022/03/29 03:13:03;;;;;;;15.30;8.05;;;11.60;99.90;;;;;;6160848;23;20005;-90
2022/03/29 03:15:29;;;;;;;18.55;7.55;;;11.60;99.90;;;;;;6160723;23;20096;-91
2022/03/29 03:17:56;;;;;;;16.10;7.78;;;11.60;99.90;;;;;;6160539;23;20435;-91
2022/03/29 03:20:24;;;;;;;15.93;8.02;;;11.50;99.90;;;;;;6185607;23;20005;-92
2022/03/29 03:22:51;;;;;;;18.17;6.95;;;11.50;99.90;;;;;;6185313;23;20008;-91
2022/03/29 03:25:18;;;;;;;19.33;8.32;;;11.50;99.90;;;;;;6185489;23;20009;-91
2022/03/29 03:27:45;;;;;;;19.42;8.05;;;11.60;99.90;;;;;;6185654;23;20084;-90
2022/03/29 03:30:16;;;;;;;17.35;8.25;;;11.60;99.90;;;;;;6185262;23;20031;-91
2022/03/29 03:32:44;;;;;;;21.75;8.55;;;11.60;99.90;;;;;;6185411;23;20005;-90
2022/03/29 03:35:12;;;;;;;23.92;8.30;;;11.50;99.90;;;;;;6185289;23;20009;-92
2022/03/29 03:37:39;;;;;;;14.98;7.72;;;11.50;99.90;;;;;;6160806;23;20021;-91
2022/03/29 03:40:09;;;;;;;15.25;7.57;;;11.60;99.90;;;;;;6185545;23;20001;-91
2022/03/29 03:42:37;;;;;;;18.23;7.50;;;11.50;99.90;;;;;;6185500;23;20431;-91
2022/03/29 03:45:07;;;;;;;20.50;7.47;;;11.40;99.90;;;;;;6185514;23;20080;-91
2022/03/29 03:47:35;;;;;;;17.77;8.05;;;11.40;99.90;;;;;;6185580;23;20009;-91
2022/03/29 03:50:06;;;;;;;21.48;7.70;;;11.30;99.90;;;;;;6185554;23;20024;-91
2022/03/29 03:52:33;;;;;;;18.70;8.48;;;11.40;99.90;;;;;;6185825;23;20009;-93
2022/03/29 03:54:59;;;;;;;21.67;8.90;;;11.40;99.90;;;;;;6161085;23;20088;-91
2022/03/29 03:57:26;;;;;;;18.08;7.88;;;11.30;99.90;;;;;;6185927;23;20017;-91
2022/03/29 03:59:55;;;;;;;17.58;7.30;;;11.40;99.90;;;;;;6161508;23;20456;-91
2022/03/29 04:02:23;;;;;;;18.02;8.00;;;11.40;99.90;;;;;;6161223;23;20059;-92
2022/03/29 04:04:50;;;;;;;17.60;7.63;;;11.30;99.90;;;;;;6184272;23;20022;-90
2022/03/29 04:07:16;;;;;;;18.48;7.82;;;11.30;99.90;;;;;;6204489;23;20009;-91
2022/03/29 04:09:43;;;;;;;22.10;7.40;;;11.20;99.90;;;;;;6180405;23;20002;-92
2022/03/29 04:12:10;;;;;;;23.10;8.18;;;11.40;99.90;;;;;;6180317;23;20037;-91
2022/03/29 04:14:37;;;;;;;24.35;8.48;;;11.30;99.90;;;;;;6181117;23;20029;-91
2022/03/29 04:17:10;;;;;;;17.77;7.85;;;11.30;99.90;;;;;;6181033;23;20024;-93
2022/03/29 04:19:37;;;;;;;20.63;8.35;;;11.30;99.90;;;;;;6181249;23;20343;-93
2022/03/29 04:22:05;;;;;;;18.83;7.93;;;11.40;99.90;;;;;;6156802;23;20064;-92
2022/03/29 04:24:31;;;;;;;20.90;8.55;;;11.30;99.90;;;;;;6180805;23;20009;-91
2022/03/29 04:26:58;;;;;;;27.15;8.98;;;11.30;99.90;;;;;;6180746;23;20001;-92
2022/03/29 04:29:24;;;;;;;20.45;8.43;;;11.20;99.90;;;;;;6183369;23;20009;-92
2022/03/29 04:31:52;;;;;;;20.17;9.70;;;11.20;99.90;;;;;;6180175;23;20012;-93
2022/03/29 04:34:18;;;;;;;20.63;8.98;;;11.20;99.90;;;;;;6180058;23;20017;-93
2022/03/29 04:36:45;;;;;;;22.02;8.70;;;11.20;99.90;;;;;;6180151;23;20017;-92
2022/03/29 04:39:12;;;;;;;21.48;10.25;;;11.20;99.90;;;;;;6179914;23;20033;-92
2022/03/29 04:41:39;;;;;;;26.80;9.73;;;11.20;99.90;;;;;;6131773;23;20013;-93
2022/03/29 04:44:06;;;;;;;26.80;8.82;;;11.20;99.90;;;;;;6181636;23;20025;-91
2022/03/29 04:46:36;;;;;;;18.40;9.15;;;11.20;99.90;;;;;;6181642;23;20013;-92
2022/03/29 04:49:02;;;;;;;20.17;9.32;;;11.20;99.90;;;;;;6181829;23;20068;-91
2022/03/29 04:51:29;;;;;;;23.70;8.30;;;11.20;99.90;;;;;;6181631;23;20095;-92
2022/03/29 04:53:55;;;;;;;21.60;9.63;;;11.20;99.90;;;;;;6182643;23;20002;-93
2022/03/29 04:56:22;;;;;;;23.15;8.60;;;11.20;99.90;;;;;;6181783;23;20340;-91
2022/03/29 04:58:48;;;;;;;26.13;9.55;;;11.10;99.90;;;;;;6181563;23;20039;-92
2022/03/29 05:01:15;;;;;;;21.85;8.35;;;11.10;99.90;;;;;;6181783;23;20005;-92
2022/03/29 05:03:42;;;;;;;20.13;8.77;;;11.10;99.90;;;;;;6181559;23;20010;-92
2022/03/29 05:06:09;;;;;;;27.65;9.48;;;11.00;99.90;;;;;;6181494;23;20435;-92
2022/03/29 05:08:36;;;;;;;24.30;9.63;;;10.90;99.90;;;;;;6184142;23;20009;-93
2022/03/29 05:11:04;;;;;;;21.33;8.70;;;11.00;99.90;;;;;;6186773;23;20368;-92
2022/03/29 05:13:34;;;;;;;19.73;8.88;;;11.00;99.90;;;;;;6152408;23;20008;-91
2022/03/29 05:16:01;;;;;;;25.65;9.25;;;11.00;99.90;;;;;;6182146;23;20428;-92
2022/03/29 05:18:28;;;;;;;20.77;8.63;;;11.10;99.90;;;;;;6181551;23;20375;-93
2022/03/29 05:20:54;;;;;;;17.92;8.23;;;11.20;99.90;;;;;;6181771;23;20064;-93
2022/03/29 05:23:22;;;;;;;17.15;7.75;;;11.20;99.90;;;;;;6181603;23;20451;-92
2022/03/29 05:25:50;;;;;;;23.35;8.15;;;11.30;99.90;;;;;;6181789;23;20462;-93
2022/03/29 05:28:19;;;;;;;22.58;10.70;;;11.30;99.90;;;;;;6181494;23;20017;-93
2022/03/29 05:30:46;;;;;;;19.63;8.68;;;11.30;99.90;;;;;;6132462;23;20020;-92
2022/03/29 05:33:15;;;;;;;22.10;8.25;;;11.40;99.90;;;;;;6182020;23;20431;-91
2022/03/29 05:35:43;;;;;;;16.27;7.80;;;11.40;99.90;;;;;;6181515;23;20013;-94
2022/03/29 05:38:10;;;;;;;25.05;8.93;;;11.50;99.90;;;;;;6181637;23;20018;-92
2022/03/29 05:40:37;;;;;;;16.58;5.97;;;11.60;99.90;;;;;;6181881;23;20009;-92
2022/03/29 05:43:08;;;;;;;17.35;6.82;;;11.60;99.90;;;;;;6181956;23;20013;-92
2022/03/29 05:45:34;;;;;;;16.50;6.70;;;11.70;99.90;;;;;;6181756;23;20337;-91
2022/03/29 05:50:46;;;;;;;15.75;6.20;;;11.80;99.90;;;;;;6157618;23;20006;-93
2022/03/29 05:53:12;;;;;;;17.83;9.18;;;11.80;99.90;;;;;;6182401;23;20036;-92
2022/03/29 05:55:39;;;;;;;18.60;7.65;;;11.30;99.90;;;;;;6182370;23;20009;-92
2022/03/29 05:58:06;;;;;;;15.82;7.72;;;11.20;99.90;;;;;;6182318;23;20076;-90
2022/03/29 06:00:33;;;;;;;14.27;6.43;;;11.20;99.90;;;;;;6191843;23;20032;-92
2022/03/29 06:02:59;;;;;;;9.40;5.20;;;11.30;99.90;;;;;;6198590;23;20001;-91
2022/03/29 06:05:26;;;;;;;18.40;6.57;;;11.30;99.90;;;;;;6181225;23;20130;-91
2022/03/29 06:07:53;;;;;;;11.18;5.65;;;11.40;99.90;;;;;;6156759;23;20017;-91
2022/03/29 06:10:20;;;;;;;13.15;6.38;;;11.70;99.90;;;;;;6181466;23;20084;-91
2022/03/29 06:12:47;;;;;;;14.75;5.85;;;11.90;99.90;;;;;;6182287;23;20402;-91
2022/03/29 06:15:15;;;;;;;15.60;7.30;;;12.10;99.90;;;;;;6182143;23;20012;-92
2022/03/29 06:17:42;;;;;;;17.50;7.63;;;12.20;99.90;;;;;;6181090;23;20037;-92
2022/03/29 06:20:10;;;;;;;21.67;7.43;;;12.40;99.90;;;;;;6181109;23;20009;-93
2022/03/29 06:22:44;;;;;;;16.38;7.47;;;12.60;99.90;;;;;;6181027;23;20009;-91
2022/03/29 06:25:13;;;;;;;12.40;6.10;;;12.80;99.90;;;;;;6181059;23;20465;-93
2022/03/29 06:27:40;;;;;;;12.43;5.75;;;12.60;99.90;;;;;;6181417;23;20009;-91
2022/03/29 06:30:08;;;;;;;11.93;7.10;;;12.60;99.90;;;;;;6181538;23;20036;-93
2022/03/29 06:32:46;;;;;;;19.45;6.30;;;12.60;99.90;;;;;;6181144;23;20010;-91
2022/03/29 06:35:12;;;;;;;14.57;6.32;;;12.80;99.90;;;;;;6181009;23;20036;-91
2022/03/29 06:37:40;;;;;;;13.82;4.82;;;12.90;99.90;;;;;;6180894;23;20017;-90
2022/03/29 06:40:09;;;;;;;17.02;5.82;;;13.20;99.90;;;;;;6180938;23;20005;-91
2022/03/29 06:42:36;;;;;;;11.77;4.95;;;13.40;99.90;;;;;;6180939;23;20005;-91
2022/03/29 06:45:05;;;;;;;10.55;5.10;;;13.50;99.90;;;;;;6182005;23;20082;-92
2022/03/29 06:47:32;;;;;;;8.50;3.90;;;13.70;99.90;;;;;;6135393;23;20448;-91
2022/03/29 06:49:59;;;;;;;7.68;3.42;;;13.90;99.90;;;;;;6180829;23;20060;-90
2022/03/29 06:52:26;;;;;;;7.03;3.35;;;14.10;99.90;;;;;;6180847;23;20089;-91
2022/03/29 06:54:54;;;;;;;12.85;3.75;;;14.00;99.90;;;;;;6181033;23;20056;-90
2022/03/29 06:57:21;;;;;;;13.68;4.60;;;14.20;99.90;;;;;;6181828;23;20014;-91
2022/03/29 06:59:48;;;;;;;13.13;2.83;;;14.50;99.90;;;;;;6183826;23;20085;-89
2022/03/29 07:02:15;;;;;;;6.72;3.20;;;14.60;99.90;;;;;;6180948;23;20084;-92
2022/03/29 07:04:42;;;;;;;12.23;3.47;;;14.60;99.90;;;;;;6180021;23;20018;-92
2022/03/29 07:07:09;;;;;;;9.18;3.30;;;14.80;99.90;;;;;;6157207;23;20009;-92
2022/03/29 07:12:21;;;;;;;5.90;2.92;;;15.00;99.90;;;;;;6155970;23;20440;-91
2022/03/29 07:14:47;;;;;;;6.28;2.13;;;15.20;99.90;;;;;;6180478;23;20012;-91
2022/03/29 07:17:16;;;;;;;6.45;2.88;;;15.40;99.90;;;;;;6180695;23;20415;-91
2022/03/29 07:19:43;;;;;;;6.75;3.20;;;15.50;99.90;;;;;;6180838;23;20009;-91
2022/03/29 07:22:10;;;;;;;9.00;3.08;;;15.40;99.90;;;;;;6180697;23;20017;-92
2022/03/29 07:24:37;;;;;;;13.05;3.25;;;15.60;99.90;;;;;;6180591;23;20009;-91
2022/03/29 07:27:04;;;;;;;6.80;2.28;;;15.80;99.90;;;;;;6180626;23;20427;-93
2022/03/29 07:29:32;;;;;;;4.68;2.25;;;16.20;99.90;;;;;;6180724;23;20003;-91
2022/03/29 07:31:59;;;;;;;10.52;2.15;;;16.40;99.90;;;;;;6180570;23;20009;-92
2022/03/29 07:34:26;;;;;;;5.40;2.40;;;16.50;99.90;;;;;;6180643;23;20005;-91
2022/03/29 07:36:56;;;;;;;7.22;2.75;;;16.50;99.90;;;;;;6180673;23;20076;-91
2022/03/29 07:39:23;;;;;;;7.50;2.08;;;16.40;99.90;;;;;;6180848;23;20096;-92
2022/03/29 07:41:49;;;;;;;7.90;1.85;;;16.40;99.90;;;;;;6180699;23;20021;-91
2022/03/29 07:44:17;;;;;;;10.85;2.03;;;17.00;99.90;;;;;;6181137;23;20092;-92
2022/03/29 07:46:44;;;;;;;7.60;2.90;;;16.90;99.90;;;;;;6182020;23;20033;-91
2022/03/29 07:49:11;;;;;;;5.88;1.85;;;16.90;99.90;;;;;;6180986;23;20033;-91
2022/03/29 07:51:39;;;;;;;5.38;1.85;;;17.20;99.90;;;;;;6180747;23;20336;-92
2022/03/29 07:54:06;;;;;;;11.50;1.85;;;17.30;99.90;;;;;;6181195;23;20005;-92
2022/03/29 07:56:33;;;;;;;3.00;1.70;;;17.20;99.90;;;;;;6191498;23;20520;-91
2022/03/29 07:58:59;;;;;;;12.40;3.03;;;17.00;99.90;;;;;;6188069;23;20001;-92
2022/03/29 08:01:26;;;;;;;7.32;2.70;;;16.90;99.90;;;;;;6180506;23;20005;-91
2022/03/29 08:03:52;;;;;;;3.75;2.10;;;17.20;99.90;;;;;;6180747;23;20097;-93
2022/03/29 08:06:19;;;;;;;7.07;2.05;;;17.40;99.90;;;;;;6135950;23;20005;-92
2022/03/29 08:08:45;;;;;;;11.25;3.00;;;17.60;99.90;;;;;;6160315;23;20013;-93
2022/03/29 08:11:12;;;;;;;6.40;2.08;;;17.40;99.90;;;;;;6160672;23;20009;-94
2022/03/29 08:13:39;;;;;;;3.63;1.75;;;17.50;99.90;;;;;;6160383;23;20087;-91
2022/03/29 08:16:06;;;;;;;6.50;1.77;;;17.60;99.90;;;;;;6161063;23;20005;-92
2022/03/29 08:18:35;;;;;;;8.30;2.25;;;17.40;99.90;;;;;;6162263;23;20021;-92
2022/03/29 08:21:02;;;;;;;3.40;1.73;;;17.20;99.90;;;;;;6162462;23;20096;-91
2022/03/29 08:23:28;;;;;;;6.88;1.92;;;17.20;99.90;;;;;;6162286;23;20017;-92
2022/03/29 08:25:56;;;;;;;7.80;2.13;;;17.60;99.90;;;;;;6162335;23;20077;-92
2022/03/29 08:28:22;;;;;;;6.65;1.95;;;18.10;99.90;;;;;;6162495;23;20005;-91
2022/03/29 08:30:49;;;;;;;7.72;2.72;;;18.50;99.90;;;;;;6162209;23;20015;-91
2022/03/29 08:33:15;;;;;;;7.03;1.52;;;18.30;99.90;;;;;;6162226;23;20007;-93
2022/03/29 08:35:44;;;;;;;3.85;2.22;;;18.60;99.90;;;;;;6162136;23;20013;-93
2022/03/29 08:38:11;;;;;;;6.20;2.35;;;19.00;99.90;;;;;;6162102;23;20021;-92
2022/03/29 08:40:40;;;;;;;6.30;2.38;;;18.90;99.90;;;;;;6162864;23;20001;-93
2022/03/29 08:43:08;;;;;;;10.57;2.55;;;18.80;99.90;;;;;;6189912;23;20088;-92
2022/03/29 08:45:39;;;;;;;4.13;1.88;;;18.70;99.90;;;;;;6210122;23;20025;-91
2022/03/29 08:48:06;;;;;;;9.07;2.35;;;18.50;99.90;;;;;;6190248;23;20009;-91
2022/03/29 08:50:36;;;;;;;6.35;2.03;;;19.00;99.90;;;;;;6186748;23;20005;-92
2022/03/29 08:53:04;;;;;;;9.55;1.88;;;18.90;99.90;;;;;;6161966;23;20498;-91
2022/03/29 08:55:31;;;;;;;7.30;1.92;;;18.80;99.90;;;;;;6186699;23;20005;-91
2022/03/29 08:57:58;;;;;;;14.00;2.75;;;18.50;99.90;;;;;;6162171;23;20155;-91
2022/03/29 09:00:25;;;;;;;35.33;3.03;;;18.30;99.90;;;;;;6162647;23;20482;-91
2022/03/29 09:02:52;;;;;;;6.22;1.85;;;18.30;99.90;;;;;;6162105;23;20009;-91
2022/03/29 09:05:29;;;;;;;7.03;2.05;;;18.10;99.90;;;;;;6161474;23;20021;-93
2022/03/29 09:07:59;;;;;;;6.70;2.35;;;18.00;99.90;;;;;;6165936;23;20040;-93
2022/03/29 09:10:48;;;;;;;7.82;2.17;;;17.80;99.90;;;;;;6186716;23;20013;-92
2022/03/29 09:13:24;;;;;;;5.78;2.60;;;17.70;99.90;;;;;;6186825;23;20016;-91
2022/03/29 09:15:53;;;;;;;4.32;1.55;;;17.70;99.90;;;;;;6186612;23;20005;-92
2022/03/29 09:18:20;;;;;;;5.40;1.85;;;17.50;99.90;;;;;;6186781;23;20092;-93
2022/03/29 09:21:06;;;;;;;4.95;1.95;;;17.50;99.90;;;;;;6186760;23;20013;-93
2022/03/29 09:23:34;;;;;;;6.65;2.35;;;17.60;99.90;;;;;;6186400;23;20091;-91
2022/03/29 09:26:02;;;;;;;16.38;3.08;;;17.60;99.90;;;;;;6137205;23;20001;-91
2022/03/29 09:28:37;;;;;;;5.35;1.83;;;17.70;99.90;;;;;;6161005;23;20012;-92
2022/03/29 09:31:25;;;;;;;6.45;2.13;;;17.70;99.90;;;;;;6186527;23;20018;-92
2022/03/29 09:34:10;;;;;;;14.18;2.42;;;17.70;99.90;;;;;;6186771;23;20005;-92
2022/03/29 09:36:43;;;;;;;4.05;2.00;;;17.60;99.90;;;;;;6186841;23;20013;-91
2022/03/29 09:39:30;;;;;;;5.13;2.38;;;17.50;99.90;;;;;;6186687;23;20013;-92
2022/03/29 09:41:59;;;;;;;5.45;2.45;;;17.30;99.90;;;;;;6186620;23;20084;-91
2022/03/29 09:44:40;;;;;;;8.52;2.75;;;17.30;99.90;;;;;;6185562;23;20080;-91
2022/03/29 09:47:09;;;;;;;4.45;1.80;;;17.40;99.90;;;;;;6186587;23;20088;-92
2022/03/29 09:49:59;;;;;;;7.35;1.73;;;17.50;99.90;;;;;;6186805;23;20032;-92
2022/03/29 09:52:30;;;;;;;12.02;3.08;;;17.60;99.90;;;;;;6171751;23;20005;-90
2022/03/29 09:55:10;;;;;;;11.93;2.75;;;17.30;99.90;;;;;;6196216;23;20063;-92
2022/03/29 09:57:42;;;;;;;6.80;1.70;;;17.40;99.90;;;;;;6185940;23;20506;-92
2022/03/29 10:00:13;;;;;;;8.45;3.03;;;17.60;99.90;;;;;;6161554;23;20043;-92
2022/03/29 10:02:45;;;;;;;5.10;2.00;;;17.60;99.90;;;;;;6185591;23;20005;-91
2022/03/29 10:05:15;;;;;;;3.63;1.70;;;17.50;99.90;;;;;;6180872;23;20020;-93
2022/03/29 10:07:45;;;;;;;8.70;2.28;;;17.50;99.90;;;;;;6156517;23;20016;-92
2022/03/29 10:10:12;;;;;;;8.25;2.47;;;17.40;99.90;;;;;;6181052;23;20500;-93
2022/03/29 10:12:39;;;;;;;20.75;2.33;;;17.30;99.90;;;;;;6181378;23;20336;-92
2022/03/29 10:15:07;;;;;;;8.32;2.80;;;17.40;99.90;;;;;;6181028;23;20387;-91
2022/03/29 10:17:34;;;;;;;3.90;2.10;;;17.60;99.90;;;;;;6181117;23;20025;-92
2022/03/29 10:20:01;;;;;;;12.70;2.95;;;17.60;99.90;;;;;;6181136;23;20006;-92
2022/03/29 10:22:29;;;;;;;12.95;2.60;;;17.60;99.90;;;;;;6181026;23;20041;-91
2022/03/29 10:24:55;;;;;;;4.18;2.13;;;17.70;99.90;;;;;;6180957;23;20009;-91
2022/03/29 10:27:26;;;;;;;11.10;2.53;;;17.80;99.90;;;;;;6181414;23;20005;-91
2022/03/29 10:29:53;;;;;;;4.18;2.60;;;17.80;99.90;;;;;;6185056;23;20020;-91
2022/03/29 10:32:31;;;;;;;9.48;3.15;;;17.80;99.90;;;;;;6194183;23;20489;-92
2022/03/29 10:35:09;;;;;;;7.43;2.25;;;17.80;99.90;;;;;;6181063;23;20010;-93
2022/03/29 10:37:55;;;;;;;5.00;2.08;;;17.50;99.90;;;;;;6180909;23;20049;-93
2022/03/29 10:40:41;;;;;;;4.05;2.63;;;17.60;99.90;;;;;;6180922;23;20088;-93
2022/03/29 10:43:29;;;;;;;8.35;2.53;;;17.70;99.90;;;;;;6181061;23;20009;-92
2022/03/29 10:45:58;;;;;;;4.93;2.45;;;17.70;99.90;;;;;;6156266;23;20450;-91
2022/03/29 10:48:25;;;;;;;7.35;2.33;;;17.60;99.90;;;;;;6180855;23;20084;-92
2022/03/29 10:50:54;;;;;;;5.65;1.63;;;17.70;99.90;;;;;;6156016;23;20439;-92
2022/03/29 10:53:32;;;;;;;9.68;2.50;;;17.70;99.90;;;;;;6180857;23;20021;-92
2022/03/29 10:56:16;;;;;;;8.10;2.78;;;17.70;99.90;;;;;;6131420;23;20092;-92
2022/03/29 10:59:08;;;;;;;6.00;2.30;;;17.80;99.90;;;;;;6180800;23;20041;-93
2022/03/29 11:01:37;;;;;;;32.28;2.38;;;17.90;99.90;;;;;;6132715;23;20096;-93
2022/03/29 11:04:07;;;;;;;5.65;1.90;;;17.90;99.90;;;;;;6183209;23;20332;-93
2022/03/29 11:06:36;;;;;;;6.53;1.77;;;17.90;99.90;;;;;;6185742;23;20019;-91
2022/03/29 11:09:04;;;;;;;8.95;2.60;;;17.90;99.90;;;;;;6185698;23;20012;-91
2022/03/29 11:11:43;;;;;;;5.28;2.38;;;17.80;99.90;;;;;;6185694;23;20078;-91
2022/03/29 11:14:34;;;;;;;11.73;2.30;;;17.80;99.90;;;;;;6185433;23;20009;-93
2022/03/29 11:17:08;;;;;;;7.13;2.35;;;17.80;99.90;;;;;;6136160;23;20017;-92
2022/03/29 11:19:44;;;;;;;8.73;2.38;;;17.80;99.90;;;;;;6136170;23;20403;-93
2022/03/29 11:22:43;;;;;;;10.45;2.15;;;17.80;99.90;;;;;;6185779;23;20441;-92
2022/03/29 11:25:14;;;;;;;9.20;1.77;;;17.60;99.90;;;;;;6185533;23;20048;-92
2022/03/29 11:27:41;;;;;;;9.20;2.35;;;17.70;99.90;;;;;;6185431;23;20020;-92
2022/03/29 11:30:11;;;;;;;7.07;2.38;;;17.90;99.90;;;;;;6160869;23;20079;-93
2022/03/29 11:32:45;;;;;;;7.93;2.25;;;17.80;99.90;;;;;;6185982;23;20016;-91
2022/03/29 11:35:15;;;;;;;;;;;17.90;99.90;;;;;;6186553;23;20016;-92
2022/03/29 11:37:44;;;;;;;7.25;2.10;;;17.90;99.90;;;;;;6162912;23;19971;-92
2022/03/29 11:40:17;;;;;;;11.75;3.42;;;17.70;99.90;;;;;;6165117;23;20012;-92
2022/03/29 11:43:10;;;;;;;11.75;2.80;;;17.80;99.90;;;;;;6193780;23;20016;-88
2022/03/29 11:45:40;;;;;;;13.13;3.17;;;17.80;99.90;;;;;;6169479;23;20423;-92
2022/03/29 11:51:31;;;;;;;4.47;2.10;;;17.80;99.90;;;;;;6213557;22;20020;-93
2022/03/29 11:57:25;;;;;;;5.75;1.70;;;17.80;99.90;;;;;;6216703;22;20021;-93
2022/03/29 11:59:54;;;;;;;8.93;2.78;;;17.90;99.90;;;;;;6167670;23;20016;-93
2022/03/29 12:02:25;;;;;;;16.27;2.78;;;18.00;99.90;;;;;;6168886;23;20004;-93
2022/03/29 12:04:55;;;;;;;11.68;3.05;;;18.00;99.90;;;;;;6169491;23;20023;-94
2022/03/29 12:07:43;;;;;;;15.35;2.50;;;18.00;99.90;;;;;;6140369;23;20012;-94
2022/03/29 12:10:19;;;;;;;5.70;2.08;;;17.90;99.90;;;;;;6163773;23;20511;-92
2022/03/29 12:12:51;;;;;;;12.07;2.30;;;18.00;99.90;;;;;;6163831;23;20427;-95
2022/03/29 12:15:37;;;;;;;4.55;2.13;;;18.10;99.90;;;;;;6172175;23;20036;-94
2022/03/29 12:20:49;;;;;;;8.45;2.75;;;18.10;99.90;;;;;;6167140;23;20002;-94
2022/03/29 12:23:25;;;;;;;14.40;3.17;;;18.00;99.90;;;;;;6138857;23;20438;-94
2022/03/29 12:25:53;;;;;;;3.58;2.30;;;17.80;99.90;;;;;;6162476;23;20013;-94
2022/03/29 12:28:24;;;;;;;10.20;2.13;;;17.80;99.90;;;;;;6138511;23;20081;-94
2022/03/29 12:30:54;;;;;;;6.93;2.05;;;17.70;99.90;;;;;;6162446;23;20016;-94
2022/03/29 12:33:25;;;;;;;10.25;3.00;;;17.90;99.90;;;;;;6162538;23;20101;-93
2022/03/29 12:36:03;;;;;;;17.45;2.58;;;17.80;99.90;;;;;;6137953;23;20033;-95
2022/03/29 12:38:40;;;;;;;8.98;2.67;;;17.80;99.90;;;;;;6162803;23;20021;-92
2022/03/29 12:41:08;;;;;;;13.43;2.90;;;18.00;99.90;;;;;;6162293;23;20081;-94
2022/03/29 12:43:35;;;;;;;13.48;2.72;;;18.00;99.90;;;;;;6102911;23;20010;-93
2022/03/29 12:46:08;;;;;;;5.75;2.92;;;18.00;99.90;;;;;;6078986;23;20503;-92
2022/03/29 12:48:38;;;;;;;13.13;3.10;;;18.00;99.90;;;;;;6080146;23;20061;-90
2022/03/29 12:51:09;;;;;;;7.93;2.55;;;18.00;99.90;;;;;;6081308;23;20017;-92
2022/03/29 12:53:36;;;;;;;5.57;2.45;;;18.10;99.90;;;;;;6081286;23;20010;-93
2022/03/29 12:56:09;;;;;;;8.75;2.20;;;18.10;99.90;;;;;;6081672;23;20436;-93
2022/03/29 12:58:38;;;;;;;25.23;3.33;;;18.10;99.90;;;;;;6083874;23;20018;-94
2022/03/29 13:01:24;;;;;;;5.97;2.28;;;18.20;99.90;;;;;;6121025;23;20023;-93
2022/03/29 13:06:26;;;;;;;9.52;3.42;;;18.20;99.90;;;;;;6185436;23;20021;-93
2022/03/29 13:09:03;;;;;;;4.28;2.08;;;18.20;99.90;;;;;;6142080;23;20013;-93
2022/03/29 13:11:29;;;;;;;6.03;2.00;;;18.10;99.90;;;;;;6141661;23;20403;-93